createdAt,value
2018-06-14T00:01:04.847Z,72.90
2018-06-14T00:03:34.739Z,72.70
2018-06-14T00:06:03.864Z,72.80
2018-06-14T00:08:33.342Z,72.60
2018-06-14T00:11:02.598Z,72.40
2018-06-14T00:13:32.945Z,72.80
2018-06-14T00:18:31.976Z,72.20
2018-06-14T00:21:01.686Z,72.70
2018-06-14T00:23:31.502Z,72.90
2018-06-14T00:26:01.599Z,73.00
2018-06-14T00:28:31.052Z,72.80
2018-06-14T00:30:59.944Z,72.50
2018-06-14T00:33:29.705Z,72.00
2018-06-14T00:35:58.392Z,72.40
2018-06-14T00:40:57.771Z,72.30
2018-06-14T00:43:28.675Z,72.80
2018-06-14T00:45:58.741Z,73.10
2018-06-14T00:48:30.276Z,72.30
2018-06-14T00:50:59.877Z,72.40
2018-06-14T00:53:30.621Z,72.40
2018-06-14T00:56:00.637Z,72.40
2018-06-14T00:58:30.671Z,71.90
2018-06-14T01:00:59.792Z,71.20
2018-06-14T01:03:31.092Z,70.90
2018-06-14T01:06:00.200Z,71.30
2018-06-14T01:08:29.932Z,71.30
2018-06-14T01:10:59.342Z,71.30
2018-06-14T01:15:56.581Z,71.00
2018-06-14T01:18:25.996Z,71.10
2018-06-14T01:20:57.824Z,71.30
2018-06-14T01:23:31.549Z,71.00
2018-06-14T01:26:01.697Z,71.00
2018-06-14T01:28:32.564Z,71.20
2018-06-14T01:31:06.489Z,71.10
2018-06-14T01:33:40.207Z,71.10
2018-06-14T01:36:09.202Z,70.90
2018-06-14T01:38:38.160Z,71.10
2018-06-14T01:43:39.740Z,70.80
2018-06-14T01:46:08.640Z,70.30
2018-06-14T01:48:38.690Z,70.20
2018-06-14T01:51:07.857Z,70.40
2018-06-14T01:53:36.744Z,70.10
2018-06-14T01:56:05.651Z,70.00
2018-06-14T01:58:35.630Z,69.90
2018-06-14T02:01:05.343Z,70.00
2018-06-14T02:03:34.378Z,70.00
2018-06-14T02:06:03.541Z,69.80
2018-06-14T02:08:32.957Z,69.60
2018-06-14T02:11:02.076Z,69.90
2018-06-14T02:13:30.952Z,69.60
2018-06-14T02:16:00.423Z,69.70
2018-06-14T02:18:29.247Z,69.00
2018-06-14T02:20:58.779Z,68.80
2018-06-14T02:23:28.369Z,68.90
2018-06-14T02:25:58.458Z,69.00
2018-06-14T02:28:28.423Z,68.70
2018-06-14T02:30:57.917Z,68.70
2018-06-14T02:33:27.737Z,68.70
2018-06-14T02:35:57.415Z,68.70
2018-06-14T02:38:27.673Z,68.70
2018-06-14T02:41:01.226Z,69.00
2018-06-14T02:43:30.133Z,68.80
2018-06-14T02:45:59.679Z,68.80
2018-06-14T02:48:28.892Z,69.10
2018-06-14T02:51:06.818Z,68.90
2018-06-14T02:53:40.865Z,68.90
2018-06-14T02:56:13.719Z,68.60
2018-06-14T02:58:42.694Z,68.90
2018-06-14T03:01:13.994Z,68.50
2018-06-14T03:03:42.963Z,68.70
2018-06-14T03:06:12.509Z,68.70
2018-06-14T03:08:43.448Z,69.00
2018-06-14T03:11:13.782Z,69.20
2018-06-14T03:13:42.556Z,69.10
2018-06-14T03:16:12.209Z,68.50
2018-06-14T03:18:41.699Z,68.30
2018-06-14T03:21:10.713Z,68.60
2018-06-14T03:26:09.354Z,68.90
2018-06-14T03:28:38.279Z,68.40
2018-06-14T03:31:07.774Z,68.70
2018-06-14T03:33:38.045Z,68.30
2018-06-14T03:36:08.558Z,68.40
2018-06-14T03:38:38.266Z,68.30
2018-06-14T03:41:06.991Z,68.20
2018-06-14T03:43:36.541Z,67.70
2018-06-14T03:46:06.104Z,67.70
2018-06-14T03:51:05.758Z,67.80
2018-06-14T03:53:36.826Z,67.20
2018-06-14T03:56:06.188Z,67.00
2018-06-14T03:58:35.785Z,67.00
2018-06-14T04:03:35.716Z,67.00
2018-06-14T04:06:05.157Z,67.20
2018-06-14T04:08:34.413Z,67.10
2018-06-14T04:11:04.337Z,67.10
2018-06-14T04:13:38.317Z,67.10
2018-06-14T04:16:08.073Z,67.50
2018-06-14T04:18:36.788Z,67.20
2018-06-14T04:21:06.179Z,66.70
2018-06-14T04:23:34.921Z,66.70
2018-06-14T04:26:04.365Z,66.50
2018-06-14T04:28:33.431Z,66.70
2018-06-14T04:31:03.058Z,66.00
2018-06-14T04:33:32.058Z,66.30
2018-06-14T04:36:01.876Z,65.60
2018-06-14T04:38:32.650Z,65.90
2018-06-14T04:41:02.617Z,65.90
2018-06-14T04:43:31.509Z,65.20
2018-06-14T04:46:00.773Z,65.10
2018-06-14T04:50:58.749Z,65.60
2018-06-14T04:53:28.856Z,65.10
2018-06-14T04:55:58.226Z,65.10
2018-06-14T04:58:27.707Z,64.50
2018-06-14T05:01:00.976Z,64.60
2018-06-14T05:03:30.328Z,64.60
2018-06-14T05:05:59.181Z,64.40
2018-06-14T05:10:57.591Z,64.00
2018-06-14T05:13:26.664Z,63.80
2018-06-14T05:16:04.085Z,63.40
2018-06-14T05:18:32.845Z,63.90
2018-06-14T05:21:02.467Z,63.40
2018-06-14T05:23:32.528Z,64.00
2018-06-14T05:26:01.844Z,63.40
2018-06-14T05:28:30.938Z,62.50
2018-06-14T05:31:04.681Z,62.70
2018-06-14T05:33:34.785Z,62.60
2018-06-14T05:36:04.265Z,62.90
2018-06-14T05:38:33.010Z,62.90
2018-06-14T05:41:01.876Z,63.20
2018-06-14T05:43:30.792Z,63.10
2018-06-14T05:45:59.612Z,63.40
2018-06-14T05:48:29.330Z,63.40
2018-06-14T05:50:58.956Z,63.20
2018-06-14T05:53:28.380Z,63.10
2018-06-14T05:55:58.789Z,63.00
2018-06-14T05:58:27.543Z,63.60
2018-06-14T06:00:56.842Z,63.90
2018-06-14T06:03:26.895Z,63.40
2018-06-14T06:05:56.133Z,64.30
2018-06-14T06:08:25.277Z,63.40
2018-06-14T06:10:54.757Z,63.30
2018-06-14T06:13:24.228Z,63.30
2018-06-14T06:15:53.080Z,63.20
2018-06-14T07:40:25.239Z,63.40
2018-06-14T07:42:54.895Z,66.30
2018-06-14T07:45:23.690Z,65.70
2018-06-14T07:47:53.852Z,64.90
2018-06-14T07:50:23.428Z,65.20
2018-06-14T07:52:52.849Z,65.10
2018-06-14T07:55:22.143Z,64.50
2018-06-14T07:57:54.973Z,64.00
2018-06-14T08:02:53.922Z,64.40
2018-06-14T08:05:23.861Z,64.40
2018-06-14T08:07:57.434Z,64.80
2018-06-14T08:10:26.224Z,64.70
2018-06-14T08:12:55.057Z,64.30
2018-06-14T08:15:23.883Z,64.60
2018-06-14T08:17:54.727Z,64.30
2018-06-14T08:20:25.104Z,64.30
2018-06-14T08:22:53.810Z,63.90
2018-06-14T08:25:23.125Z,64.10
2018-06-14T08:27:53.002Z,64.20
2018-06-14T08:30:23.051Z,64.10
2018-06-14T08:32:52.029Z,64.00
2018-06-14T08:35:20.819Z,64.30
2018-06-14T08:37:50.652Z,64.30
2018-06-14T08:40:19.393Z,64.20
2018-06-14T08:42:48.233Z,63.60
2018-06-14T08:45:17.552Z,63.50
2018-06-14T08:47:47.907Z,63.40
2018-06-14T08:50:17.112Z,62.50
2018-06-14T08:52:50.511Z,62.70
2018-06-14T08:55:19.435Z,62.50
2018-06-14T08:57:48.194Z,62.00
2018-06-14T09:00:17.249Z,61.90
2018-06-14T09:02:46.416Z,62.70
2018-06-14T09:05:16.090Z,62.20
2018-06-14T09:07:44.855Z,61.70
2018-06-14T09:10:14.643Z,62.20
2018-06-14T09:12:43.682Z,62.60
2018-06-14T09:15:16.994Z,62.40
2018-06-14T09:17:45.949Z,62.00
2018-06-14T09:20:15.321Z,62.10
2018-06-14T09:22:44.056Z,62.30
2018-06-14T09:25:12.753Z,62.10
2018-06-14T09:27:42.663Z,61.70
2018-06-14T09:30:11.524Z,62.20
2018-06-14T09:32:40.471Z,62.30
2018-06-14T09:35:09.179Z,62.40
2018-06-14T09:37:38.532Z,61.90
2018-06-14T09:40:07.294Z,62.30
2018-06-14T09:42:36.473Z,62.70
2018-06-14T09:45:05.630Z,62.30
2018-06-14T09:47:34.314Z,62.20
2018-06-14T09:50:03.078Z,62.30
2018-06-14T09:52:32.613Z,62.40
2018-06-14T09:55:02.210Z,61.90
2018-06-14T09:57:32.379Z,61.90
2018-06-14T10:00:02.015Z,62.20
2018-06-14T10:02:31.930Z,62.40
2018-06-14T10:05:01.297Z,62.00
2018-06-14T10:07:30.042Z,62.20
2018-06-14T10:09:58.777Z,62.00
2018-06-14T10:12:28.040Z,61.80
2018-06-14T10:14:57.402Z,61.70
2018-06-14T10:17:26.847Z,61.90
2018-06-14T10:19:56.282Z,62.30
2018-06-14T10:22:25.761Z,62.00
2018-06-14T10:24:56.183Z,61.90
2018-06-14T10:27:26.338Z,62.20
2018-06-14T10:29:55.973Z,61.90
2018-06-14T10:32:25.715Z,61.90
2018-06-14T10:34:56.269Z,62.50
2018-06-14T10:37:26.215Z,63.00
2018-06-14T10:39:55.988Z,62.70
2018-06-14T10:42:25.359Z,62.60
2018-06-14T10:44:59.103Z,63.00
2018-06-14T10:47:31.479Z,62.30
2018-06-14T10:50:01.824Z,62.60
2018-06-14T10:52:31.600Z,62.80
2018-06-14T10:55:02.456Z,62.80
2018-06-14T10:57:32.366Z,62.70
2018-06-14T11:00:02.885Z,63.20
2018-06-14T11:02:31.590Z,62.40
2018-06-14T11:05:00.820Z,62.70
2018-06-14T11:07:29.508Z,62.20
2018-06-14T11:09:58.295Z,61.90
2018-06-14T11:12:28.195Z,61.90
2018-06-14T11:14:56.904Z,62.30
2018-06-14T11:17:26.150Z,62.30
2018-06-14T11:19:54.849Z,62.30
2018-06-14T11:22:24.956Z,62.10
2018-06-14T11:25:01.932Z,61.80
2018-06-14T11:27:32.063Z,61.60
2018-06-14T11:30:00.870Z,61.60
2018-06-14T11:32:29.629Z,61.50
2018-06-14T11:34:58.417Z,61.50
2018-06-14T11:37:27.473Z,61.80
2018-06-14T11:39:57.017Z,61.90
2018-06-14T11:42:26.358Z,62.20
2018-06-14T11:44:55.765Z,61.80
2018-06-14T11:47:25.209Z,62.50
2018-06-14T11:49:53.986Z,62.10
2018-06-14T11:52:23.802Z,62.00
2018-06-14T11:54:53.962Z,61.90
2018-06-14T11:57:23.480Z,61.70
2018-06-14T11:59:53.801Z,61.00
2018-06-14T12:02:23.168Z,60.60
2018-06-14T12:04:52.926Z,60.20
2018-06-14T12:07:22.378Z,60.10
2018-06-14T12:09:51.163Z,59.50
2018-06-14T12:14:48.781Z,59.10
2018-06-14T12:17:17.573Z,59.00
2018-06-14T12:19:47.078Z,58.90
2018-06-14T12:22:15.830Z,59.10
2018-06-14T12:24:49.010Z,59.10
2018-06-14T12:27:19.087Z,59.90
2018-06-14T12:29:48.174Z,59.40
2018-06-14T12:32:16.924Z,59.30
2018-06-14T12:37:16.802Z,58.90
2018-06-14T12:39:46.281Z,58.30
2018-06-14T12:42:16.391Z,58.20
2018-06-14T12:44:51.160Z,57.70
2018-06-14T12:47:20.849Z,57.40
2018-06-14T12:49:51.088Z,57.40
2018-06-14T12:52:20.050Z,57.10
2018-06-14T12:54:50.196Z,56.90
2018-06-14T12:57:19.144Z,56.80
2018-06-14T12:59:48.748Z,56.80
2018-06-14T13:02:17.497Z,57.00
2018-06-14T13:04:48.031Z,57.10
2018-06-14T13:07:17.586Z,57.10
2018-06-14T13:09:48.149Z,57.30
2018-06-14T13:12:17.655Z,57.20
2018-06-14T13:14:47.508Z,57.00
2018-06-14T13:17:17.027Z,56.90
2018-06-14T13:19:46.288Z,57.00
2018-06-14T13:22:16.189Z,57.20
2018-06-14T13:24:46.712Z,57.30
2018-06-14T13:27:16.263Z,57.60
2018-06-14T13:29:45.980Z,57.80
2018-06-14T13:32:15.603Z,57.80
2018-06-14T13:34:45.684Z,57.80
2018-06-14T13:37:16.263Z,58.10
2018-06-14T13:39:45.815Z,58.30
2018-06-14T13:42:15.739Z,57.80
2018-06-14T13:44:45.573Z,57.80
2018-06-14T13:47:15.847Z,57.80
2018-06-14T13:49:46.137Z,57.70
2018-06-14T13:52:14.981Z,57.90
2018-06-14T13:54:47.933Z,57.70
2018-06-14T13:57:17.268Z,57.70
2018-06-14T13:59:46.546Z,57.30
2018-06-14T14:02:16.513Z,57.60
2018-06-14T14:04:45.405Z,57.30
2018-06-14T14:07:18.353Z,57.00
2018-06-14T14:09:47.568Z,57.10
2018-06-14T14:12:17.117Z,56.50
2018-06-14T14:14:46.615Z,56.70
2018-06-14T14:17:16.336Z,56.50
2018-06-14T14:19:46.471Z,56.40
2018-06-14T14:22:17.773Z,56.70
2018-06-14T14:24:46.432Z,56.80
2018-06-14T14:27:16.159Z,56.50
2018-06-14T14:29:45.611Z,56.10
2018-06-14T14:32:14.644Z,56.20
2018-06-14T14:34:44.679Z,56.20
2018-06-14T14:37:14.257Z,56.30
2018-06-14T14:39:43.773Z,56.50
2018-06-14T14:42:12.772Z,56.70
2018-06-14T14:44:42.065Z,57.20
2018-06-14T14:47:10.805Z,57.70
2018-06-14T14:49:39.715Z,57.90
2018-06-14T14:54:39.116Z,58.60
2018-06-14T14:57:11.350Z,58.60
2018-06-14T14:59:40.761Z,58.60
2018-06-14T15:02:11.680Z,58.40
2018-06-14T15:04:41.894Z,58.20
2018-06-14T15:07:12.221Z,58.30
2018-06-14T15:09:41.293Z,58.10
2018-06-14T15:12:10.413Z,58.30
2018-06-14T15:14:39.974Z,58.50
2018-06-14T15:17:08.823Z,58.40
2018-06-14T15:19:38.638Z,58.00
2018-06-14T15:22:09.234Z,57.70
2018-06-14T15:24:38.296Z,57.30
2018-06-14T15:27:07.260Z,57.40
2018-06-14T15:29:36.897Z,57.20
2018-06-14T15:32:11.468Z,57.10
2018-06-14T15:34:40.770Z,57.10
2018-06-14T15:37:10.219Z,57.00
2018-06-14T15:39:39.165Z,56.90
2018-06-14T15:42:08.632Z,56.40
2018-06-14T15:44:37.539Z,56.60
2018-06-14T15:49:34.828Z,56.00
2018-06-14T15:52:06.119Z,56.10
2018-06-14T15:54:35.089Z,56.30
2018-06-14T15:57:09.501Z,56.50
2018-06-14T15:59:39.492Z,56.10
2018-06-14T16:02:09.188Z,55.90
2018-06-14T16:04:39.005Z,55.90
2018-06-14T16:07:10.184Z,55.90
2018-06-14T16:09:42.149Z,56.30
2018-06-14T16:12:11.925Z,56.10
2018-06-14T16:17:10.258Z,57.20
2018-06-14T16:19:39.465Z,56.80
2018-06-14T16:22:08.545Z,57.20
2018-06-14T16:24:38.542Z,57.40
2018-06-14T16:29:36.117Z,57.50
2018-06-14T16:32:04.966Z,57.80
2018-06-14T16:34:34.479Z,57.80
2018-06-14T16:37:07.734Z,57.90
2018-06-14T16:39:42.273Z,58.10
2018-06-14T16:42:12.117Z,58.20
2018-06-14T16:44:40.854Z,58.20
2018-06-14T16:47:09.738Z,58.10
2018-06-14T16:49:39.672Z,58.10
2018-06-14T16:52:08.664Z,58.20
2018-06-14T16:54:38.452Z,58.30
2018-06-14T16:57:08.169Z,58.30
2018-06-14T16:59:37.158Z,58.20
2018-06-14T17:04:34.745Z,58.50
2018-06-14T17:07:03.807Z,58.70
2018-06-14T17:09:35.083Z,59.00
2018-06-14T17:12:08.506Z,58.90
2018-06-14T17:14:38.419Z,59.00
2018-06-14T17:17:07.217Z,58.80
2018-06-14T17:19:37.447Z,58.60
2018-06-14T17:22:06.400Z,59.00
2018-06-14T17:24:36.535Z,58.90
2018-06-14T17:27:05.709Z,59.10
2018-06-14T17:29:35.591Z,59.20
2018-06-14T17:32:09.545Z,59.20
2018-06-14T17:34:38.369Z,59.50
2018-06-14T17:37:07.663Z,59.40
2018-06-14T17:39:37.355Z,59.60
2018-06-14T17:42:06.277Z,59.80
2018-06-14T17:44:36.285Z,59.80
2018-06-14T17:47:05.689Z,59.80
2018-06-14T17:49:35.717Z,59.80
2018-06-14T17:52:05.555Z,60.00
2018-06-14T17:54:35.707Z,60.10
2018-06-14T17:57:04.729Z,60.30
2018-06-14T17:59:34.309Z,60.30
2018-06-14T18:02:03.783Z,60.40
2018-06-14T18:04:33.148Z,60.50
2018-06-14T18:07:03.621Z,60.50
2018-06-14T18:09:36.651Z,60.40
2018-06-14T18:12:05.896Z,60.90
2018-06-14T18:14:35.276Z,61.00
2018-06-14T18:17:05.075Z,61.10
2018-06-14T18:19:34.460Z,60.90
2018-06-14T18:22:04.110Z,61.20
2018-06-14T18:24:34.344Z,61.50
2018-06-14T18:27:05.086Z,61.70
2018-06-14T18:29:35.423Z,61.60
2018-06-14T18:32:05.681Z,61.60
2018-06-14T18:34:35.387Z,61.60
2018-06-14T18:37:04.621Z,61.60
2018-06-14T18:39:34.531Z,61.50
2018-06-14T18:42:05.051Z,61.40
2018-06-14T18:44:34.702Z,61.40
2018-06-14T18:47:04.389Z,61.30
2018-06-14T18:49:38.147Z,61.20
2018-06-14T18:52:07.861Z,60.90
2018-06-14T18:54:36.725Z,60.70
2018-06-14T18:57:05.681Z,61.10
2018-06-14T18:59:35.356Z,61.30
2018-06-14T19:02:04.463Z,61.20
2018-06-14T19:04:33.845Z,61.10
2018-06-14T19:07:08.340Z,61.50
2018-06-14T19:09:37.738Z,61.40
2018-06-14T19:12:07.359Z,61.20
2018-06-14T19:17:05.265Z,61.40
2018-06-14T19:19:34.830Z,60.90
2018-06-14T19:22:04.097Z,61.30
2018-06-14T19:24:34.474Z,61.00
2018-06-14T19:27:03.921Z,61.30
2018-06-14T19:29:33.612Z,61.50
2018-06-14T19:32:09.337Z,61.90
2018-06-14T19:34:38.904Z,61.70
2018-06-14T19:37:08.355Z,62.00
2018-06-14T19:39:37.659Z,61.70
2018-06-14T19:42:07.832Z,61.70
2018-06-14T19:44:36.783Z,61.50
2018-06-14T19:47:05.768Z,61.50
2018-06-14T19:49:35.365Z,61.70
2018-06-14T19:52:04.628Z,62.00
2018-06-14T19:54:34.426Z,62.00
2018-06-14T19:57:08.859Z,62.20
2018-06-14T19:59:39.309Z,62.20
2018-06-14T20:02:09.110Z,62.20
2018-06-14T20:04:38.405Z,62.30
2018-06-14T20:07:09.090Z,62.30
2018-06-14T20:09:39.951Z,62.60
2018-06-14T20:12:09.034Z,62.50
2018-06-14T20:14:38.166Z,62.50
2018-06-14T20:17:06.877Z,62.40
2018-06-14T20:19:35.623Z,62.50
2018-06-14T20:22:05.816Z,62.80
2018-06-14T20:24:34.812Z,62.80
2018-06-14T20:27:04.514Z,62.70
2018-06-14T20:29:34.458Z,62.60
2018-06-14T20:32:05.845Z,63.50
2018-06-14T20:34:35.818Z,62.50
2018-06-14T20:39:39.881Z,62.40
2018-06-14T20:42:09.602Z,62.40
2018-06-14T20:44:38.732Z,62.60
2018-06-14T20:47:07.717Z,62.60
2018-06-14T20:49:37.138Z,62.80
2018-06-14T20:52:06.063Z,62.80
2018-06-14T20:54:35.805Z,62.80
2018-06-14T20:57:04.825Z,62.60
2018-06-14T20:59:34.401Z,62.90
2018-06-14T21:02:04.589Z,62.40
2018-06-14T21:04:34.010Z,62.30
2018-06-14T21:07:02.702Z,62.90
2018-06-14T21:09:31.724Z,62.90
2018-06-14T21:12:00.477Z,62.70
2018-06-14T21:14:29.987Z,62.50
2018-06-14T21:17:00.468Z,62.80
2018-06-14T21:19:31.334Z,62.60
2018-06-14T21:22:00.840Z,62.70
2018-06-14T21:24:29.740Z,62.60
2018-06-14T21:26:59.264Z,62.70
2018-06-14T21:29:28.848Z,62.60
2018-06-14T21:31:58.423Z,62.90
2018-06-14T21:34:27.861Z,63.10
2018-06-14T21:36:56.747Z,63.00
2018-06-14T21:39:25.659Z,62.60
2018-06-14T21:41:54.620Z,62.60
2018-06-14T21:44:23.921Z,62.70
2018-06-14T21:46:54.348Z,63.00
2018-06-14T21:49:23.586Z,63.30
2018-06-14T21:51:53.061Z,62.90
2018-06-14T21:54:21.749Z,62.90
2018-06-14T21:59:19.095Z,63.20
2018-06-14T22:01:47.893Z,63.30
2018-06-14T22:04:17.557Z,63.40
2018-06-14T22:06:47.537Z,63.80
2018-06-14T22:09:16.354Z,64.10
2018-06-14T22:11:48.088Z,64.50
2018-06-14T22:14:16.920Z,64.30
2018-06-14T22:16:46.793Z,64.10
2018-06-14T22:19:16.457Z,64.10
2018-06-14T22:21:55.477Z,63.90
2018-06-14T22:24:24.936Z,64.10
2018-06-14T22:26:54.788Z,64.20
2018-06-14T22:29:24.592Z,64.50
2018-06-14T22:31:54.466Z,64.40
2018-06-14T22:34:34.464Z,64.50
2018-06-14T22:37:04.457Z,64.50
2018-06-14T22:39:33.910Z,64.30
2018-06-14T22:42:03.321Z,64.60
2018-06-14T22:44:32.885Z,64.60
2018-06-14T22:47:02.424Z,64.60
2018-06-14T22:49:31.092Z,64.60
2018-06-14T22:53:04.448Z,64.60
2018-06-14T22:55:34.496Z,64.70
2018-06-14T22:58:03.971Z,64.40
2018-06-14T23:01:49.237Z,64.70
2018-06-14T23:04:19.494Z,64.80
2018-06-14T23:06:48.728Z,65.80
2018-06-14T23:10:29.093Z,65.00
2018-06-14T23:12:58.458Z,64.80
2018-06-14T23:15:28.439Z,65.00
2018-06-14T23:17:57.365Z,65.00
2018-06-14T23:20:28.003Z,64.70
2018-06-14T23:22:58.084Z,65.10
2018-06-14T23:25:27.750Z,64.90
2018-06-14T23:27:57.863Z,64.80
2018-06-14T23:30:26.851Z,64.80
2018-06-14T23:32:55.476Z,64.50
2018-06-14T23:35:24.563Z,64.50
2018-06-14T23:37:53.989Z,64.30
2018-06-14T23:40:24.944Z,64.20
2018-06-14T23:42:54.762Z,64.20
2018-06-14T23:45:24.101Z,64.60
2018-06-14T23:47:53.594Z,64.40
2018-06-14T23:50:22.529Z,64.40
2018-06-14T23:52:52.767Z,64.40
2018-06-14T23:55:22.743Z,64.10
2018-06-14T23:57:51.493Z,63.90
